CMA CGM Herodote — MFEP — position and weather

sailwx.info

Track history (hours):
 
Tides and Currents Weather Stations Pressure Air Temp Water Temp Dewpoint Dewpoint Depression Visibility Wind Speed Wind Dir Waves Ship Positions

CMA CGM Herodote

Last reported at 2015-Aug-31 00:31 UTC. Time now 2015-Aug-31 00:37 UTC.
Position N 51°54' E 004°26'.

Length 170 m; draft 7.8 m.

Type: Ship (hazmat cat A). MMSI: 235051085.

Date/timePositionNaut miles runAvg speedWind from/ knotsBaromVisibWave heightAir tempDewpointWater temp
2015-Aug-31 00:31N 51°54' E 004°26'0 0.0
2015-Aug-30 23:31N 51°54' E 004°26'0 0.0
2015-Aug-30 22:31N 51°54' E 004°26'0 0.0
2015-Aug-30 21:31N 51°54' E 004°26'0 0.0
2015-Aug-30 20:31N 51°54' E 004°26'0 0.0
2015-Aug-30 19:31N 51°54' E 004°26'0 0.0
2015-Aug-30 18:31N 51°54' E 004°26'0 0.0
2015-Aug-30 17:31N 51°54' E 004°26'0 0.0
2015-Aug-30 16:31N 51°54' E 004°26'0 0.0
2015-Aug-30 15:31N 51°54' E 004°26'0 0.0
2015-Aug-30 14:31N 51°54' E 004°26'0 0.0
2015-Aug-30 13:31N 51°54' E 004°26'0 0.0
2015-Aug-30 12:31N 51°54' E 004°26'0 0.0
2015-Aug-30 11:31N 51°54' E 004°26'0 0.0
2015-Aug-30 10:31N 51°54' E 004°26'0 0.0
2015-Aug-30 09:31N 51°54' E 004°26'0 0.0
2015-Aug-30 08:31N 51°54' E 004°26'0 0.0
2015-Aug-30 07:31N 51°54' E 004°26'0 0.0
2015-Aug-30 06:31N 51°54' E 004°26'0 0.0
2015-Aug-30 05:31N 51°54' E 004°26'0 0.1
2015-Aug-30 04:33N 51°54' E 004°26'7 7.0
2015-Aug-30 03:33N 51°55' E 004°15'1312.6
2015-Aug-30 02:33N 52°00' E 003°57'9 8.8
2015-Aug-30 01:33N 51°58' E 003°43'1110.7
2015-Aug-30 00:33N 51°55' E 003°26'2019.5
2015-Aug-29 23:33N 51°50' E 002°56'1818.4
2015-Aug-29 22:33N 51°54' E 002°27'1817.8
2015-Aug-29 21:33N 51°43' E 002°04'1717.3
2015-Aug-29 20:33N 51°32' E 001°42'10 9.6
2015-Aug-29 19:33N 51°31' E 001°26'9 9.4
2015-Aug-29 18:33N 51°34' E 001°12'1312.6
2015-Aug-29 17:34N 51°29' E 000°53'1514.5
2015-Aug-29 16:33N 51°30' E 000°30'7 6.5
2015-Aug-29 15:33N 51°27' E 000°20'0 0.0
2015-Aug-29 14:33N 51°27' E 000°20'0 0.0
2015-Aug-29 13:33N 51°27' E 000°20'0 0.0
2015-Aug-29 12:33N 51°27' E 000°20'0 0.0
2015-Aug-29 11:33N 51°27' E 000°20'0 0.0
2015-Aug-29 10:33N 51°27' E 000°20'0 0.0
2015-Aug-29 09:33N 51°27' E 000°20'0 0.0
2015-Aug-29 08:33N 51°27' E 000°20'0 0.0
2015-Aug-29 07:33N 51°27' E 000°20'0 0.0
2015-Aug-29 06:33N 51°27' E 000°20'0 0.0
2015-Aug-29 05:33N 51°27' E 000°20'0 0.0
2015-Aug-29 04:33N 51°27' E 000°20'4 4.0
2015-Aug-29 03:33N 51°27' E 000°26'9 8.5
2015-Aug-29 02:33N 51°30' E 000°39'10 9.9
2015-Aug-29 01:33N 51°29' E 000°55'1110.8
2015-Aug-29 00:33N 51°29' E 001°13'1211.5
2015-Aug-28 23:33N 51°25' E 001°30'7 7.2
2015-Aug-28 22:33N 51°19' E 001°36'8 8.4
2015-Aug-28 21:33N 51°11' E 001°37'1110.8
2015-Aug-28 20:33N 51°01' E 001°31'1211.6
2015-Aug-28 19:33N 50°50' E 001°24'1211.4
2015-Aug-28 18:32N 50°39' E 001°17'1712.3
2015-Aug-28 17:11N 50°29' E 000°56'912.5
2015-Aug-28 16:26N 50°27' E 000°42'  
2015-Aug-26 06:09N 39°23' W 009°52'915.5
2015-Aug-26 05:33N 39°14' W 009°50'1515.5
2015-Aug-26 04:33N 38°59' W 009°52'1515.2
2015-Aug-26 03:33N 38°43' W 009°51'1615.8
2015-Aug-26 02:33N 38°28' W 009°47'1615.9
2015-Aug-26 01:34N 38°12' W 009°42'1616.2
2015-Aug-26 00:33N 37°57' W 009°37'1615.8
2015-Aug-25 23:33N 37°41' W 009°33'1615.9
2015-Aug-25 22:33N 37°26' W 009°29'1616.1
2015-Aug-25 21:33N 37°10' W 009°25'1515.7
2015-Aug-25 20:34N 36°55' W 009°20'1514.9
2015-Aug-25 19:33N 36°44' W 009°07'1515.1
2015-Aug-25 18:33N 36°39' W 008°49'1515.0
2015-Aug-25 17:33N 36°35' W 008°31'1515.1
2015-Aug-25 16:33N 36°30' W 008°13'1515.2
2015-Aug-25 15:32N 36°25' W 007°55'  
Track history (hours):
 
Tides and Currents Weather Stations Pressure Air Temp Water Temp Dewpoint Dewpoint Depression Visibility Wind Speed Wind Dir Waves Ship Positions

CMA CGM Herodote

Last reported at 2015-Aug-31 00:31 UTC. Time now 2015-Aug-31 00:37 UTC.
Position N 51°54' E 004°26'.

Length 170 m; draft 7.8 m.

Type: Ship (hazmat cat A). MMSI: 235051085.

Date/timePositionNaut miles runAvg speedWind from/ knotsBaromVisibWave heightAir tempDewpointWater temp
2015-Aug-31 00:31N 51°54' E 004°26'0 0.0
2015-Aug-30 23:31N 51°54' E 004°26'0 0.0
2015-Aug-30 22:31N 51°54' E 004°26'0 0.0
2015-Aug-30 21:31N 51°54' E 004°26'0 0.0
2015-Aug-30 20:31N 51°54' E 004°26'0 0.0
2015-Aug-30 19:31N 51°54' E 004°26'0 0.0
2015-Aug-30 18:31N 51°54' E 004°26'0 0.0
2015-Aug-30 17:31N 51°54' E 004°26'0 0.0
2015-Aug-30 16:31N 51°54' E 004°26'0 0.0
2015-Aug-30 15:31N 51°54' E 004°26'0 0.0
2015-Aug-30 14:31N 51°54' E 004°26'0 0.0
2015-Aug-30 13:31N 51°54' E 004°26'0 0.0
2015-Aug-30 12:31N 51°54' E 004°26'0 0.0
2015-Aug-30 11:31N 51°54' E 004°26'0 0.0
2015-Aug-30 10:31N 51°54' E 004°26'0 0.0
2015-Aug-30 09:31N 51°54' E 004°26'0 0.0
2015-Aug-30 08:31N 51°54' E 004°26'0 0.0
2015-Aug-30 07:31N 51°54' E 004°26'0 0.0
2015-Aug-30 06:31N 51°54' E 004°26'0 0.0
2015-Aug-30 05:31N 51°54' E 004°26'0 0.1
2015-Aug-30 04:33N 51°54' E 004°26'7 7.0
2015-Aug-30 03:33N 51°55' E 004°15'1312.6
2015-Aug-30 02:33N 52°00' E 003°57'9 8.8
2015-Aug-30 01:33N 51°58' E 003°43'1110.7
2015-Aug-30 00:33N 51°55' E 003°26'2019.5
2015-Aug-29 23:33N 51°50' E 002°56'1818.4
2015-Aug-29 22:33N 51°54' E 002°27'1817.8
2015-Aug-29 21:33N 51°43' E 002°04'1717.3
2015-Aug-29 20:33N 51°32' E 001°42'10 9.6
2015-Aug-29 19:33N 51°31' E 001°26'9 9.4
2015-Aug-29 18:33N 51°34' E 001°12'1312.6
2015-Aug-29 17:34N 51°29' E 000°53'1514.5
2015-Aug-29 16:33N 51°30' E 000°30'7 6.5
2015-Aug-29 15:33N 51°27' E 000°20'0 0.0
2015-Aug-29 14:33N 51°27' E 000°20'0 0.0
2015-Aug-29 13:33N 51°27' E 000°20'0 0.0
2015-Aug-29 12:33N 51°27' E 000°20'0 0.0
2015-Aug-29 11:33N 51°27' E 000°20'0 0.0
2015-Aug-29 10:33N 51°27' E 000°20'0 0.0
2015-Aug-29 09:33N 51°27' E 000°20'0 0.0
2015-Aug-29 08:33N 51°27' E 000°20'0 0.0
2015-Aug-29 07:33N 51°27' E 000°20'0 0.0
2015-Aug-29 06:33N 51°27' E 000°20'0 0.0
2015-Aug-29 05:33N 51°27' E 000°20'0 0.0
2015-Aug-29 04:33N 51°27' E 000°20'4 4.0
2015-Aug-29 03:33N 51°27' E 000°26'9 8.5
2015-Aug-29 02:33N 51°30' E 000°39'10 9.9
2015-Aug-29 01:33N 51°29' E 000°55'1110.8
2015-Aug-29 00:33N 51°29' E 001°13'1211.5
2015-Aug-28 23:33N 51°25' E 001°30'7 7.2
2015-Aug-28 22:33N 51°19' E 001°36'8 8.4
2015-Aug-28 21:33N 51°11' E 001°37'1110.8
2015-Aug-28 20:33N 51°01' E 001°31'1211.6
2015-Aug-28 19:33N 50°50' E 001°24'1211.4
2015-Aug-28 18:32N 50°39' E 001°17'1712.3
2015-Aug-28 17:11N 50°29' E 000°56'912.5
2015-Aug-28 16:26N 50°27' E 000°42'  
2015-Aug-26 06:09N 39°23' W 009°52'915.5
2015-Aug-26 05:33N 39°14' W 009°50'1515.5
2015-Aug-26 04:33N 38°59' W 009°52'1515.2
2015-Aug-26 03:33N 38°43' W 009°51'1615.8
2015-Aug-26 02:33N 38°28' W 009°47'1615.9
2015-Aug-26 01:34N 38°12' W 009°42'1616.2
2015-Aug-26 00:33N 37°57' W 009°37'1615.8
2015-Aug-25 23:33N 37°41' W 009°33'1615.9
2015-Aug-25 22:33N 37°26' W 009°29'1616.1
2015-Aug-25 21:33N 37°10' W 009°25'1515.7
2015-Aug-25 20:34N 36°55' W 009°20'1514.9
2015-Aug-25 19:33N 36°44' W 009°07'1515.1
2015-Aug-25 18:33N 36°39' W 008°49'1515.0
2015-Aug-25 17:33N 36°35' W 008°31'1515.1
2015-Aug-25 16:33N 36°30' W 008°13'1515.2
2015-Aug-25 15:32N 36°25' W 007°55'  

Dump ship's entire track history